Time;durP1;ratioP1;P1;durP2;ratioP2;P2;SDS_P1;SDS_P2;PMS_P1;PMS_P2;Temp;Humidity;BMP_temperature;BMP_pressure;BME280_temperature;BME280_humidity;BME280_pressure;Samples;Min_cycle;Max_cycle;Signal;HPM_P1;HPM_P2
2021/03/20 00:02:40;;;;;;;26.92;13.52;;;;;;;1.58;100.00;94706.84;10487749;28;20111;-75
2021/03/20 00:07:41;;;;;;;31.05;16.00;;;;;;;1.64;100.00;94693.53;10489317;28;20029;-75
2021/03/20 00:12:43;;;;;;;31.75;15.77;;;;;;;1.54;100.00;94717.88;10486127;28;20056;-74
2021/03/20 00:17:44;;;;;;;28.30;15.90;;;;;;;1.68;100.00;94712.47;10487089;28;20064;-75
2021/03/20 00:22:44;;;;;;;35.33;16.30;;;;;;;1.75;100.00;94712.41;10486725;28;20115;-75
2021/03/20 00:27:45;;;;;;;36.30;17.53;;;;;;;1.92;100.00;94725.91;10487105;28;20267;-75
2021/03/20 00:32:45;;;;;;;39.45;18.08;;;;;;;1.96;100.00;94724.44;10486786;28;20031;-75
2021/03/20 00:37:46;;;;;;;37.60;17.58;;;;;;;2.00;100.00;94715.81;10486862;28;20033;-75
2021/03/20 00:42:46;;;;;;;40.83;18.80;;;;;;;2.02;100.00;94718.25;10488548;28;20119;-75
2021/03/20 00:47:47;;;;;;;43.43;19.77;;;;;;;1.93;100.00;94709.00;10487479;28;20038;-75
2021/03/20 00:52:47;;;;;;;45.58;17.45;;;;;;;1.96;100.00;94693.44;10487391;28;20369;-75
2021/03/20 00:57:48;;;;;;;30.05;16.80;;;;;;;1.64;100.00;94711.28;10487919;28;20770;-75
2021/03/20 01:02:48;;;;;;;34.50;16.27;;;;;;;1.32;100.00;94704.22;10485874;28;20036;-74
2021/03/20 01:07:49;;;;;;;36.90;18.33;;;;;;;1.19;100.00;94705.13;10485985;28;20494;-74
2021/03/20 01:12:49;;;;;;;37.30;17.03;;;;;;;1.34;100.00;94704.81;10486393;28;20036;-75
2021/03/20 01:17:49;;;;;;;44.73;17.83;;;;;;;1.29;100.00;94702.00;10485875;28;20035;-74
2021/03/20 01:22:50;;;;;;;36.85;19.00;;;;;;;1.33;100.00;94705.84;10486379;28;20279;-74
2021/03/20 01:27:52;;;;;;;37.67;17.80;;;;;;;1.41;100.00;94701.28;10486160;28;20028;-74
2021/03/20 01:32:52;;;;;;;44.25;17.40;;;;;;;1.40;100.00;94710.28;10486169;28;20036;-74
2021/03/20 01:37:53;;;;;;;38.67;19.63;;;;;;;1.42;100.00;94701.06;10476995;28;20032;-74
2021/03/20 01:42:54;;;;;;;33.72;16.67;;;;;;;1.31;100.00;94704.44;10478740;28;20094;-81
2021/03/20 01:48:18;;;;;;;40.63;19.05;;;;;;;1.31;100.00;94713.19;10443876;28;20029;-76
2021/03/20 01:53:56;;;;;;;31.88;16.65;;;;;;;1.23;100.00;94723.22;10440550;28;20090;-77
2021/03/20 01:58:56;;;;;;;34.03;16.60;;;;;;;1.26;100.00;94718.31;10445625;28;20037;-76
2021/03/20 02:03:58;;;;;;;31.95;16.98;;;;;;;1.35;100.00;94722.34;10445323;28;20037;-77
2021/03/20 02:09:00;;;;;;;35.55;18.00;;;;;;;1.38;100.00;94713.13;10444033;28;20104;-77
2021/03/20 02:14:26;;;;;;;26.85;15.30;;;;;;;1.40;100.00;94710.28;10444452;28;20472;-77
2021/03/20 02:19:50;;;;;;;26.30;14.88;;;;;;;1.39;100.00;94719.25;10444705;28;20035;-77
2021/03/20 02:25:15;;;;;;;29.25;15.10;;;;;;;1.31;100.00;94715.00;10443937;28;20025;-77
2021/03/20 02:30:46;;;;;;;34.03;17.25;;;;;;;1.34;100.00;94710.13;10443408;28;20697;-77
2021/03/20 02:36:02;;;;;;;40.50;18.70;;;;;;;1.29;100.00;94725.81;10445002;28;20029;-76
2021/03/20 02:41:14;;;;;;;39.17;18.83;;;;;;;1.34;100.00;94722.53;10485229;28;20032;-76
2021/03/20 02:46:35;;;;;;;36.92;17.55;;;;;;;1.41;100.00;94723.31;10485526;28;20017;-77
2021/03/20 02:51:45;;;;;;;32.28;15.40;;;;;;;1.43;100.00;94718.59;10484710;28;20050;-76
2021/03/20 02:56:57;;;;;;;39.25;17.85;;;;;;;1.50;100.00;94716.69;10487123;28;20038;-76
2021/03/20 03:02:02;;;;;;;36.92;17.50;;;;;;;1.28;100.00;94723.41;10492965;28;20083;-76
2021/03/20 03:07:11;;;;;;;37.67;17.27;;;;;;;1.26;100.00;94718.31;10492167;28;20016;-76
2021/03/20 03:12:16;;;;;;;43.20;19.42;;;;;;;1.29;100.00;94717.09;10475737;28;20031;-76
2021/03/20 03:17:18;;;;;;;46.38;20.58;;;;;;;1.36;100.00;94720.47;10450678;28;20025;-76
2021/03/20 03:22:24;;;;;;;35.50;17.55;;;;;;;1.38;100.00;94722.91;10450205;28;20103;-75
2021/03/20 03:27:29;;;;;;;35.42;17.55;;;;;;;1.32;100.00;94722.75;10449830;28;20051;-76
2021/03/20 03:32:38;;;;;;;42.08;18.95;;;;;;;1.32;100.00;94719.28;10450181;28;20029;-75
2021/03/20 03:37:50;;;;;;;40.78;18.67;;;;;;;1.32;100.00;94729.88;10464447;28;20028;-77
2021/03/20 03:42:51;;;;;;;36.10;19.38;;;;;;;1.43;100.00;94728.38;10491276;28;20082;-76
2021/03/20 03:47:52;;;;;;;38.42;18.80;;;;;;;1.51;100.00;94725.47;10491014;28;20513;-77
2021/03/20 03:52:52;;;;;;;38.95;17.95;;;;;;;1.52;100.00;94729.72;10490825;28;20053;-77
2021/03/20 03:58:09;;;;;;;37.78;18.77;;;;;;;1.56;100.00;94715.00;10490982;28;20029;-76
2021/03/20 04:03:10;;;;;;;42.10;19.85;;;;;;;1.58;100.00;94720.09;10492101;28;20036;-76
2021/03/20 04:08:23;;;;;;;42.78;19.60;;;;;;;1.60;100.00;94716.19;10489226;28;20029;-76
2021/03/20 04:13:51;;;;;;;43.00;18.90;;;;;;;1.64;100.00;94719.25;10490233;28;20073;-78
2021/03/20 04:18:54;;;;;;;39.50;20.63;;;;;;;1.60;100.00;94720.69;10489352;28;20085;-76
2021/03/20 04:24:19;;;;;;;48.05;22.88;;;;;;;1.60;100.00;94720.69;10490380;28;20349;-76
2021/03/20 04:29:23;;;;;;;36.22;16.95;;;;;;;1.71;100.00;94725.28;10502325;28;20021;-76
2021/03/20 04:34:39;;;;;;;43.63;20.40;;;;;;;1.63;100.00;94725.56;10487296;28;20480;-77
2021/03/20 04:39:49;;;;;;;42.00;21.17;;;;;;;1.76;100.00;94725.44;10489314;28;20051;-76
2021/03/20 04:44:49;;;;;;;49.38;25.08;;;;;;;1.77;100.00;94727.06;10486629;28;20039;-76
2021/03/20 04:49:58;;;;;;;57.63;28.33;;;;;;;1.80;100.00;94731.09;10487803;28;20046;-76
2021/03/20 04:55:05;;;;;;;55.72;27.20;;;;;;;1.87;100.00;94713.28;10487862;28;20124;-77
2021/03/20 05:00:21;;;;;;;55.47;24.35;;;;;;;1.75;100.00;94718.53;10485696;28;20032;-77
2021/03/20 05:05:35;;;;;;;48.83;24.58;;;;;;;1.73;100.00;94715.28;10487227;28;20392;-78
2021/03/20 05:10:45;;;;;;;52.85;25.67;;;;;;;1.29;100.00;94722.38;10486876;28;20031;-76
2021/03/20 05:15:46;;;;;;;45.70;23.70;;;;;;;1.23;100.00;94726.69;10486661;28;20028;-77
2021/03/20 05:20:46;;;;;;;53.28;25.70;;;;;;;1.24;100.00;94725.66;10484049;28;20529;-77
2021/03/20 05:25:47;;;;;;;54.67;25.80;;;;;;;1.52;100.00;94746.44;10486939;28;20170;-77
2021/03/20 05:30:47;;;;;;;54.15;27.83;;;;;;;1.59;100.00;94729.66;10486995;28;20275;-77
2021/03/20 05:35:47;;;;;;;47.17;22.77;;;;;;;1.68;100.00;94733.66;10485982;28;20399;-77
2021/03/20 05:40:48;;;;;;;49.57;25.63;;;;;;;1.79;100.00;94740.09;10485533;28;20338;-77
2021/03/20 05:45:54;;;;;;;62.65;27.73;;;;;;;1.94;100.00;94731.78;10486692;28;20435;-77
2021/03/20 05:51:03;;;;;;;45.10;23.77;;;;;;;1.99;100.00;94742.56;10484772;28;20056;-77
2021/03/20 05:56:25;;;;;;;54.90;25.50;;;;;;;1.91;100.00;94745.50;10486249;28;20144;-77
2021/03/20 06:02:01;;;;;;;54.40;24.23;;;;;;;2.08;100.00;94743.91;10485932;28;20115;-76
2021/03/20 06:07:40;;;;;;;49.55;24.95;;;;;;;2.16;100.00;94742.78;10486325;28;20127;-77
2021/03/20 06:12:49;;;;;;;47.45;24.38;;;;;;;2.18;100.00;94738.09;10399052;28;20034;-74
2021/03/20 06:18:23;;;;;;;53.03;25.17;;;;;;;2.21;100.00;94738.44;10444073;28;20041;-74
2021/03/20 06:23:32;;;;;;;46.00;25.83;;;;;;;2.39;100.00;94734.97;10443952;28;20082;-74
2021/03/20 06:28:42;;;;;;;49.08;25.73;;;;;;;2.17;100.00;94737.25;10444493;28;20048;-74
2021/03/20 06:33:53;;;;;;;49.38;24.67;;;;;;;2.30;100.00;94741.63;10482487;28;20040;-74
2021/03/20 06:39:34;;;;;;;43.92;22.65;;;;;;;2.44;100.00;94742.25;10492899;28;20032;-73
2021/03/20 06:44:39;;;;;;;46.72;20.52;;;;;;;2.48;100.00;94743.44;10466045;28;20040;-73
2021/03/20 06:49:54;;;;;;;38.03;19.38;;;;;;;2.61;100.00;94739.00;10450982;28;20029;-73
2021/03/20 06:55:00;;;;;;;51.22;24.60;;;;;;;2.54;100.00;94741.75;10449140;28;20075;-74
2021/03/20 07:00:21;;;;;;;46.83;22.48;;;;;;;2.54;100.00;94745.22;10489856;28;20082;-75
2021/03/20 07:05:46;;;;;;;43.35;20.48;;;;;;;2.49;100.00;94747.72;10490853;28;20048;-73
2021/03/20 07:10:53;;;;;;;34.88;18.17;;;;;;;2.53;100.00;94753.41;10458573;28;20029;-74
2021/03/20 07:16:15;;;;;;;36.05;18.05;;;;;;;2.70;100.00;94745.66;10450277;28;20033;-74
2021/03/20 07:21:22;;;;;;;36.22;18.67;;;;;;;2.74;100.00;94749.47;10452403;28;20025;-75
2021/03/20 07:26:22;;;;;;;35.47;18.05;;;;;;;2.96;100.00;94752.47;10473957;28;20056;-74
2021/03/20 07:31:24;;;;;;;37.15;18.08;;;;;;;3.15;100.00;94745.25;10490870;28;20554;-74
2021/03/20 07:36:38;;;;;;;41.38;21.13;;;;;;;3.29;100.00;94740.53;10462648;28;20399;-74
2021/03/20 07:41:59;;;;;;;31.42;17.17;;;;;;;3.22;100.00;94742.50;10457940;28;20082;-75
2021/03/20 07:46:59;;;;;;;55.28;30.73;;;;;;;3.19;100.00;94740.28;10448188;28;20108;-75
2021/03/20 07:52:02;;;;;;;51.15;25.05;;;;;;;3.33;100.00;94741.72;10471153;28;20051;-75
2021/03/20 07:57:08;;;;;;;42.05;22.98;;;;;;;3.29;100.00;94751.16;10447138;28;20033;-75
2021/03/20 08:02:25;;;;;;;46.30;23.52;;;;;;;3.25;100.00;94747.34;10459718;28;20032;-75
2021/03/20 08:07:33;;;;;;;43.97;22.02;;;;;;;3.47;100.00;94744.97;10487999;28;20012;-74
2021/03/20 08:12:50;;;;;;;41.00;21.40;;;;;;;3.52;100.00;94757.59;10488595;28;20810;-74
2021/03/20 08:17:50;;;;;;;38.85;19.05;;;;;;;3.31;100.00;94767.72;10453772;28;20029;-73
2021/03/20 08:22:56;;;;;;;36.58;18.25;;;;;;;3.53;100.00;94765.34;10489053;28;20024;-74
2021/03/20 08:28:03;;;;;;;34.70;17.85;;;;;;;3.39;100.00;94767.38;10488060;28;20056;-73
2021/03/20 08:33:28;;;;;;;40.33;20.60;;;;;;;3.36;100.00;94774.97;10488462;28;20024;-74
2021/03/20 08:38:41;;;;;;;38.75;20.13;;;;;;;3.39;100.00;94771.88;10484795;28;20032;-74
2021/03/20 08:43:54;;;;;;;39.53;19.40;;;;;;;3.06;100.00;94773.97;10473635;28;20572;-74
2021/03/20 08:49:31;;;;;;;41.80;20.42;;;;;;;3.20;100.00;94776.44;10463416;28;20020;-73
2021/03/20 08:54:48;;;;;;;28.27;15.27;;;;;;;3.19;100.00;94777.47;10485927;28;20060;-74
2021/03/20 08:59:52;;;;;;;37.50;18.98;;;;;;;3.03;100.00;94761.13;10487464;28;20820;-74
2021/03/20 09:04:57;;;;;;;40.20;21.08;;;;;;;3.22;100.00;94771.69;10449783;28;20478;-74
2021/03/20 09:10:04;;;;;;;36.28;20.17;;;;;;;3.19;100.00;94774.81;10445342;28;20045;-74
2021/03/20 09:15:18;;;;;;;37.58;18.10;;;;;;;3.27;100.00;94763.88;10444769;28;20025;-74
2021/03/20 09:20:43;;;;;;;43.95;21.90;;;;;;;3.45;100.00;94770.97;10446613;28;20043;-74
2021/03/20 09:25:44;;;;;;;45.15;21.08;;;;;;;3.43;100.00;94759.75;10446840;28;20500;-74
2021/03/20 09:30:56;;;;;;;37.70;19.92;;;;;;;3.63;100.00;94759.47;10472968;28;20025;-76
2021/03/20 09:36:28;;;;;;;43.15;21.13;;;;;;;3.62;100.00;94751.72;10479798;28;20483;-74
2021/03/20 09:41:28;;;;;;;43.45;21.02;;;;;;;3.85;100.00;94751.75;10484090;28;20119;-75
2021/03/20 09:46:37;;;;;;;34.57;18.87;;;;;;;4.06;100.00;94741.56;10485289;28;20046;-75
2021/03/20 09:51:59;;;;;;;39.20;19.35;;;;;;;4.65;100.00;94732.66;10450731;28;20456;-74
2021/03/20 09:57:27;;;;;;;33.47;18.60;;;;;;;5.03;100.00;94729.41;10443898;28;20036;-74
2021/03/20 10:02:27;;;;;;;34.97;17.00;;;;;;;5.41;100.00;94735.16;10443234;28;20053;-74
2021/03/20 10:07:34;;;;;;;35.83;18.23;;;;;;;4.81;100.00;94717.81;10446059;28;20021;-74
2021/03/20 10:12:43;;;;;;;31.73;16.67;;;;;;;5.14;100.00;94717.91;10475129;28;20079;-74
2021/03/20 10:18:15;;;;;;;34.35;18.00;;;;;;;5.35;100.00;94715.59;10493165;28;20024;-74
2021/03/20 10:23:35;;;;;;;32.25;15.45;;;;;;;4.99;100.00;94714.16;10495017;28;20028;-74
2021/03/20 10:28:45;;;;;;;34.22;18.23;;;;;;;4.73;100.00;94708.34;10480093;28;20012;-74
2021/03/20 10:33:47;;;;;;;31.90;17.05;;;;;;;4.73;100.00;94698.53;10478748;28;20021;-75
2021/03/20 10:38:49;;;;;;;29.58;16.92;;;;;;;4.36;100.00;94696.19;10481455;28;20460;-75
2021/03/20 10:44:08;;;;;;;35.47;19.13;;;;;;;3.93;100.00;94695.56;10479897;28;20057;-74
2021/03/20 10:49:21;;;;;;;40.03;21.13;;;;;;;4.21;100.00;94698.53;10476508;28;20045;-76
2021/03/20 10:54:33;;;;;;;36.03;19.00;;;;;;;4.20;100.00;94700.38;10476469;28;20053;-74
2021/03/20 10:59:40;;;;;;;37.20;19.60;;;;;;;3.67;100.00;94682.72;10483491;28;20021;-73
2021/03/20 11:04:40;;;;;;;39.97;20.05;;;;;;;3.38;100.00;94683.41;10483171;28;20118;-73
2021/03/20 11:09:41;;;;;;;34.13;17.77;;;;;;;2.85;100.00;94679.72;10479646;28;20178;-73
2021/03/20 11:14:51;;;;;;;31.23;17.43;;;;;;;2.99;100.00;94682.19;10472255;28;20033;-73
2021/03/20 11:20:26;;;;;;;34.50;17.63;;;;;;;2.76;100.00;94675.75;10446657;28;20291;-73
2021/03/20 11:25:33;;;;;;;28.58;16.15;;;;;;;2.53;100.00;94671.97;10437920;28;20500;-73
2021/03/20 11:30:41;;;;;;;30.88;17.20;;;;;;;2.56;100.00;94660.09;10450132;28;20021;-73
2021/03/20 11:35:46;;;;;;;34.25;19.35;;;;;;;2.69;100.00;94648.50;10449320;28;20040;-73
2021/03/20 11:40:53;;;;;;;35.85;19.45;;;;;;;2.67;100.00;94653.22;10464202;28;20033;-73
2021/03/20 11:46:08;;;;;;;33.35;19.02;;;;;;;2.68;100.00;94641.56;10449797;28;20040;-73
2021/03/20 11:51:15;;;;;;;25.05;13.73;;;;;;;2.67;100.00;94645.28;10450438;28;20037;-74
2021/03/20 11:56:26;;;;;;;28.77;15.18;;;;;;;2.77;100.00;94636.75;10485773;28;20032;-74
2021/03/20 12:01:33;;;;;;;25.05;15.07;;;;;;;2.93;100.00;94637.94;10489518;28;20035;-74
2021/03/20 12:06:33;;;;;;;31.73;15.85;;;;;;;2.99;100.00;94626.44;10490957;28;20035;-74
2021/03/20 12:11:42;;;;;;;27.23;15.73;;;;;;;2.94;100.00;94621.78;10489415;28;20036;-74
2021/03/20 12:16:43;;;;;;;28.83;13.73;;;;;;;2.85;100.00;94616.00;10488696;28;20052;-73
2021/03/20 12:21:56;;;;;;;26.83;13.32;;;;;;;2.68;100.00;94586.66;10488518;28;20988;-73
2021/03/20 12:26:57;;;;;;;22.38;11.93;;;;;;;2.51;100.00;94605.09;10488891;28;20029;-74
2021/03/20 12:32:17;;;;;;;25.27;13.88;;;;;;;2.22;100.00;94618.09;10486271;28;20062;-74
2021/03/20 12:37:22;;;;;;;27.65;15.82;;;;;;;2.25;100.00;94611.53;10483869;28;20411;-74
2021/03/20 12:42:22;;;;;;;30.90;15.50;;;;;;;2.25;100.00;94600.09;10487790;28;20872;-74
2021/03/20 12:47:26;;;;;;;26.13;14.33;;;;;;;2.32;100.00;94598.22;10476971;28;20108;-73
2021/03/20 12:52:30;;;;;;;22.75;13.00;;;;;;;2.32;100.00;94599.00;10474081;28;20053;-74
2021/03/20 12:57:33;;;;;;;30.42;16.48;;;;;;;2.39;100.00;94606.88;10485728;28;20479;-73
2021/03/20 13:02:35;;;;;;;31.85;17.50;;;;;;;2.59;100.00;94603.13;10464487;28;20109;-73
2021/03/20 13:07:35;;;;;;;30.38;17.17;;;;;;;2.59;100.00;94616.41;10477137;28;20035;-73
2021/03/20 13:12:35;;;;;;;26.73;15.33;;;;;;;2.69;100.00;94601.56;10453929;28;20039;-73
2021/03/20 13:17:36;;;;;;;35.00;18.33;;;;;;;2.76;100.00;94605.94;10444967;28;20302;-73
2021/03/20 13:22:37;;;;;;;27.50;14.33;;;;;;;2.88;100.00;94596.16;10443183;28;20078;-74
2021/03/20 13:27:37;;;;;;;32.53;15.25;;;;;;;2.83;100.00;94604.00;10441091;28;20287;-74
2021/03/20 13:32:37;;;;;;;27.70;15.77;;;;;;;2.97;100.00;94601.94;10441989;28;20472;-74
2021/03/20 13:37:38;;;;;;;31.92;15.43;;;;;;;2.96;100.00;94601.16;10464036;28;20463;-74
2021/03/20 13:42:38;;;;;;;22.10;13.73;;;;;;;2.87;100.00;94594.53;10484122;28;20024;-74
2021/03/20 13:47:39;;;;;;;16.63;10.50;;;;;;;2.74;100.00;94604.31;10485281;28;20111;-74
2021/03/20 13:52:39;;;;;;;21.43;10.97;;;;;;;2.39;100.00;94607.69;10483463;28;20045;-73
2021/03/20 13:57:40;;;;;;;22.50;12.18;;;;;;;2.43;100.00;94605.41;10484290;28;20349;-73
2021/03/20 14:02:40;;;;;;;30.43;14.20;;;;;;;2.33;100.00;94597.97;10485421;28;20101;-73
2021/03/20 14:07:43;;;;;;;29.93;14.43;;;;;;;2.45;100.00;94594.56;10484203;28;20821;-73
2021/03/20 14:12:44;;;;;;;26.38;14.32;;;;;;;2.53;100.00;94578.31;10482163;28;20290;-73
2021/03/20 14:17:44;;;;;;;24.05;12.80;;;;;;;2.49;100.00;94588.56;10458841;28;20036;-73
2021/03/20 14:22:45;;;;;;;26.02;13.65;;;;;;;2.50;100.00;94584.09;10455378;28;20471;-73
2021/03/20 14:27:45;;;;;;;20.60;11.75;;;;;;;2.29;100.00;94601.28;10484055;28;20029;-73
2021/03/20 14:32:46;;;;;;;22.38;11.27;;;;;;;2.19;100.00;94585.91;10480134;28;20036;-73
2021/03/20 14:37:46;;;;;;;18.27;10.50;;;;;;;2.05;100.00;94603.81;10464169;28;20029;-73
2021/03/20 14:42:47;;;;;;;17.40;10.30;;;;;;;1.83;100.00;94604.31;10457364;28;20037;-73
2021/03/20 14:47:47;;;;;;;21.85;12.38;;;;;;;1.76;100.00;94592.16;10475991;28;20025;-73
2021/03/20 14:52:53;;;;;;;19.98;10.50;;;;;;;1.64;100.00;94605.34;10486505;28;20050;-73
2021/03/20 14:57:54;;;;;;;23.95;11.02;;;;;;;1.66;100.00;94592.66;10491048;28;20045;-74
2021/03/20 15:02:54;;;;;;;23.48;10.00;;;;;;;1.67;100.00;94600.38;10491672;28;20037;-73
2021/03/20 15:07:55;;;;;;;16.55;10.52;;;;;;;1.66;100.00;94603.25;10475284;28;20033;-73
2021/03/20 15:12:56;;;;;;;18.43;11.70;;;;;;;1.72;100.00;94613.00;10449077;28;20401;-73
2021/03/20 15:17:56;;;;;;;20.15;9.02;;;;;;;1.47;100.00;94597.97;10449781;28;20319;-73
2021/03/20 15:22:57;;;;;;;15.63;8.20;;;;;;;1.32;100.00;94600.16;10456621;28;20107;-73
2021/03/20 15:27:57;;;;;;;17.67;10.73;;;;;;;1.27;100.00;94587.56;10488717;28;20024;-73
2021/03/20 15:32:58;;;;;;;19.60;10.53;;;;;;;1.12;100.00;94582.63;10489964;28;20020;-73
2021/03/20 15:37:59;;;;;;;16.23;9.45;;;;;;;0.98;100.00;94597.00;10490210;28;20028;-73
2021/03/20 15:43:00;;;;;;;19.52;10.40;;;;;;;0.84;100.00;94606.88;10490113;28;20036;-73
2021/03/20 15:48:01;;;;;;;19.67;11.63;;;;;;;0.81;100.00;94610.75;10487362;28;20086;-73
2021/03/20 15:53:03;;;;;;;30.52;10.27;;;;;;;0.68;100.00;94616.13;10447928;28;20493;-72
2021/03/20 15:58:06;;;;;;;18.92;11.43;;;;;;;0.70;100.00;94616.75;10448166;28;20770;-73
2021/03/20 16:03:07;;;;;;;18.70;10.88;;;;;;;0.63;100.00;94627.38;10455900;28;20487;-72
2021/03/20 16:08:08;;;;;;;23.63;10.95;;;;;;;0.53;100.00;94621.75;10474943;28;20016;-73
2021/03/20 16:13:09;;;;;;;16.17;10.65;;;;;;;0.45;100.00;94624.63;10464243;28;20028;-73
2021/03/20 16:18:11;;;;;;;20.65;11.63;;;;;;;0.38;100.00;94635.25;10460049;28;20044;-74
2021/03/20 16:23:18;;;;;;;20.92;11.10;;;;;;;0.34;100.00;94626.91;10483117;28;20016;-74
2021/03/20 16:28:22;;;;;;;22.88;11.93;;;;;;;0.21;100.00;94618.25;10454855;28;20025;-73
2021/03/20 16:33:25;;;;;;;24.27;12.00;;;;;;;0.26;100.00;94626.34;10486631;28;20028;-73
2021/03/20 16:38:30;;;;;;;31.25;14.20;;;;;;;0.18;100.00;94627.41;10487556;28;20032;-74
2021/03/20 16:43:31;;;;;;;31.52;15.68;;;;;;;0.14;100.00;94618.28;10488351;28;20028;-74
2021/03/20 16:48:33;;;;;;;26.63;14.32;;;;;;;0.22;100.00;94619.88;10486857;28;20028;-74
2021/03/20 16:53:34;;;;;;;29.05;15.32;;;;;;;0.11;100.00;94630.09;10485860;28;20044;-74
2021/03/20 16:58:34;;;;;;;31.80;16.42;;;;;;;-0.05;100.00;94634.00;10487766;28;20135;-74
2021/03/20 17:03:35;;;;;;;31.00;14.97;;;;;;;0.04;100.00;94644.34;10460537;28;20068;-73
2021/03/20 17:08:36;;;;;;;28.83;15.07;;;;;;;0.13;100.00;94643.91;10473381;28;20313;-73
2021/03/20 17:13:36;;;;;;;23.33;14.13;;;;;;;0.23;100.00;94632.06;10469560;28;20143;-72
2021/03/20 17:18:37;;;;;;;28.60;16.55;;;;;;;0.28;100.00;94632.22;10455980;28;20069;-72
2021/03/20 17:23:40;;;;;;;27.17;15.50;;;;;;;0.37;100.00;94638.91;10454277;28;20032;-72
2021/03/20 17:28:41;;;;;;;28.70;15.48;;;;;;;0.39;100.00;94642.16;10444286;28;20098;-72
2021/03/20 17:33:42;;;;;;;25.92;13.57;;;;;;;0.43;100.00;94645.19;10443466;28;20059;-72
2021/03/20 17:38:45;;;;;;;29.40;14.57;;;;;;;0.36;100.00;94644.41;10469028;28;20570;-75
2021/03/20 17:43:46;;;;;;;27.40;14.48;;;;;;;0.40;100.00;94648.25;10463197;28;20797;-75
2021/03/20 17:48:47;;;;;;;37.92;19.70;;;;;;;0.45;100.00;94651.06;10451361;28;20035;-75
2021/03/20 17:53:47;;;;;;;40.05;19.25;;;;;;;0.49;100.00;94647.00;10443941;28;20130;-76
2021/03/20 17:58:48;;;;;;;35.07;18.93;;;;;;;0.48;100.00;94640.88;10461730;28;20115;-77
2021/03/20 18:03:49;;;;;;;34.72;17.30;;;;;;;0.50;100.00;94638.00;10482406;28;20285;-75
2021/03/20 18:08:49;;;;;;;30.38;16.15;;;;;;;0.56;100.00;94639.81;10483671;28;20090;-75
2021/03/20 18:13:49;;;;;;;23.23;12.50;;;;;;;0.58;100.00;94639.59;10485908;28;20078;-76
2021/03/20 18:18:50;;;;;;;21.23;11.52;;;;;;;0.51;100.00;94645.72;10482727;28;20483;-76
2021/03/20 18:23:50;;;;;;;26.92;12.95;;;;;;;0.47;100.00;94649.03;10476926;28;20498;-75
2021/03/20 18:28:51;;;;;;;23.10;11.90;;;;;;;0.57;100.00;94644.06;10478733;28;20028;-74
2021/03/20 18:33:52;;;;;;;23.23;11.23;;;;;;;0.62;100.00;94638.97;10486897;28;20453;-74
2021/03/20 18:38:56;;;;;;;28.75;12.63;;;;;;;0.59;100.00;94635.94;10488757;28;20287;-75
2021/03/20 18:43:57;;;;;;;21.73;10.38;;;;;;;0.62;100.00;94646.91;10487000;28;20032;-75
2021/03/20 18:48:58;;;;;;;27.10;12.98;;;;;;;0.57;100.00;94641.41;10491324;28;20157;-75
2021/03/20 18:53:58;;;;;;;24.00;13.27;;;;;;;0.56;100.00;94641.63;10489038;28;20572;-75
2021/03/20 18:58:59;;;;;;;25.20;11.02;;;;;;;0.51;100.00;94645.72;10489341;28;21228;-75
2021/03/20 19:03:59;;;;;;;19.25;11.00;;;;;;;0.43;100.00;94631.97;10488785;28;20036;-76
2021/03/20 19:09:01;;;;;;;22.57;13.03;;;;;;;0.49;100.00;94631.94;10489289;28;20021;-76
2021/03/20 19:14:02;;;;;;;26.23;11.27;;;;;;;0.48;100.00;94646.16;10489605;28;20262;-76
2021/03/20 19:19:02;;;;;;;22.00;11.90;;;;;;;0.56;100.00;94641.63;10490452;28;20030;-76
2021/03/20 19:24:03;;;;;;;18.58;9.82;;;;;;;0.47;100.00;94639.25;10489601;28;20039;-76
2021/03/20 19:29:05;;;;;;;21.50;10.25;;;;;;;0.55;100.00;94637.41;10482348;28;20873;-76
2021/03/20 19:34:07;;;;;;;26.52;12.82;;;;;;;0.47;100.00;94641.88;10474307;28;20043;-74
2021/03/20 19:39:08;;;;;;;22.73;10.73;;;;;;;0.40;100.00;94643.75;10475591;28;20060;-73
2021/03/20 19:44:09;;;;;;;17.57;10.03;;;;;;;0.28;100.00;94634.88;10483737;28;20566;-74
2021/03/20 19:49:10;;;;;;;17.88;10.48;;;;;;;0.31;100.00;94643.22;10469122;28;20034;-74
2021/03/20 19:54:11;;;;;;;18.85;9.05;;;;;;;0.07;100.00;94633.34;10489440;28;20053;-74
2021/03/20 19:59:11;;;;;;;14.60;8.63;;;;;;;0.03;100.00;94640.91;10488697;28;20020;-74
2021/03/20 20:04:20;;;;;;;15.52;8.30;;;;;;;-0.04;100.00;94634.84;10488648;28;20626;-74
2021/03/20 20:09:21;;;;;;;12.18;6.78;;;;;;;-0.08;100.00;94636.28;10488575;28;20541;-74
2021/03/20 20:14:21;;;;;;;8.48;5.43;;;;;;;-0.18;100.00;94637.53;10487864;28;20028;-73
2021/03/20 20:19:29;;;;;;;8.93;6.32;;;;;;;-0.15;100.00;94640.75;10487597;28;20017;-74
2021/03/20 20:24:31;;;;;;;35.40;16.03;;;;;;;-0.21;100.00;94632.66;10493150;28;20040;-74
2021/03/20 20:29:31;;;;;;;10.90;6.50;;;;;;;-0.19;100.00;94635.09;10487085;28;20032;-74
2021/03/20 20:34:33;;;;;;;9.35;6.80;;;;;;;-0.13;100.00;94642.16;10480608;28;20035;-74
2021/03/20 20:39:33;;;;;;;11.73;5.80;;;;;;;-0.18;100.00;94637.53;10478385;28;20040;-74
2021/03/20 20:44:34;;;;;;;12.40;7.83;;;;;;;-0.23;100.00;94642.59;10487339;28;20028;-74
2021/03/20 20:49:37;;;;;;;13.25;7.47;;;;;;;-0.24;100.00;94622.53;10486995;28;20017;-74
2021/03/20 20:54:38;;;;;;;18.67;7.50;;;;;;;-0.23;100.00;94623.31;10486395;28;20052;-74
2021/03/20 20:59:39;;;;;;;18.95;7.78;;;;;;;-0.27;100.00;94625.56;10462771;28;20029;-74
2021/03/20 21:04:40;;;;;;;13.13;7.30;;;;;;;-0.24;100.00;94625.16;10481045;28;20032;-74
2021/03/20 21:09:40;;;;;;;16.83;5.63;;;;;;;-0.17;100.00;94611.91;10462033;28;20029;-74
2021/03/20 21:14:41;;;;;;;15.35;6.45;;;;;;;-0.04;100.00;94609.22;10444643;28;20475;-74
2021/03/20 21:19:41;;;;;;;10.63;6.35;;;;;;;-0.01;100.00;94605.34;10444497;28;20140;-75
2021/03/20 21:24:41;;;;;;;18.02;8.75;;;;;;;0.02;100.00;94597.00;10444427;28;20024;-75
2021/03/20 21:29:42;;;;;;;19.17;7.63;;;;;;;0.10;100.00;94595.97;10445995;28;20079;-75
2021/03/20 21:34:42;;;;;;;20.17;10.63;;;;;;;0.16;100.00;94595.09;10466085;28;20039;-76
2021/03/20 21:39:43;;;;;;;20.42;9.90;;;;;;;0.19;100.00;94592.03;10468875;28;20110;-75
2021/03/20 21:44:43;;;;;;;22.70;11.23;;;;;;;0.11;100.00;94585.19;10443113;28;20037;-75
2021/03/20 21:49:44;;;;;;;20.13;11.30;;;;;;;0.10;100.00;94580.91;10471228;28;20028;-76
2021/03/20 21:54:44;;;;;;;24.73;12.67;;;;;;;0.07;100.00;94583.16;10481355;28;20286;-77
2021/03/20 21:59:45;;;;;;;20.60;11.55;;;;;;;0.15;100.00;94591.66;10486678;28;20827;-76
2021/03/20 22:04:45;;;;;;;17.00;10.40;;;;;;;0.12;100.00;94592.06;10489693;28;20029;-77
2021/03/20 22:09:46;;;;;;;15.43;9.30;;;;;;;0.15;100.00;94580.25;10487489;28;20531;-77
2021/03/20 22:14:46;;;;;;;16.53;8.73;;;;;;;0.11;100.00;94571.97;10487801;28;20787;-76
2021/03/20 22:19:46;;;;;;;17.57;8.80;;;;;;;0.16;100.00;94573.97;10462521;28;20431;-76
2021/03/20 22:24:47;;;;;;;15.33;9.70;;;;;;;0.19;100.00;94572.72;10446445;28;20115;-77
2021/03/20 22:29:47;;;;;;;12.27;8.23;;;;;;;0.19;100.00;94578.03;10446313;28;20024;-77
2021/03/20 22:34:47;;;;;;;13.47;7.03;;;;;;;0.15;100.00;94575.81;10447467;28;20029;-77
2021/03/20 22:39:48;;;;;;;12.23;6.67;;;;;;;0.22;100.00;94578.38;10448786;28;20287;-77
2021/03/20 22:44:48;;;;;;;14.10;7.13;;;;;;;0.16;100.00;94569.47;10449488;28;20376;-78
2021/03/20 22:49:48;;;;;;;8.57;6.10;;;;;;;0.20;100.00;94577.81;10449300;28;20275;-78
2021/03/20 22:54:49;;;;;;;11.77;6.33;;;;;;;0.26;100.00;94594.66;10448990;28;20279;-78
2021/03/20 22:59:49;;;;;;;8.23;5.45;;;;;;;0.30;100.00;94603.78;10446803;28;20037;-77
2021/03/20 23:04:50;;;;;;;10.63;6.47;;;;;;;0.17;100.00;94602.81;10447636;28;20094;-77
2021/03/20 23:09:50;;;;;;;8.52;5.25;;;;;;;0.06;100.00;94611.41;10446566;28;20263;-77